Au Sable, Michigan
Current Conditions -  °F | °C
As of 1:14 AM on Wednesday 26 Nov 2014 (Local Time) from KOSC Reporting Station
Overcast Overcast  
Wind Chill: -5°   Ceiling: 2500
Heat Index: -2°   Visibility: 10mi
Dew Point: -4°   Wind: 5mph
Humidity: 85%   Direction: 220°SW
Pressure: 30.19"   Gusts: NA
Location:  44.4539°N, 83.4813°W
Report Text: KOSC 260614Z AUTO 22004KT 10SM OVC025 M02/M04 A3019 RMK AO2 T10201042
Loading
Personal Weather Stations






























Interactive Weather Map New forecast layout! Learn more

10-Day Weather Forecast

Advertisements
Track Severe Weather on mobile